sensor_id;sensor_type;location;lat;lon;timestamp;P1;durP1;ratioP1;P2;durP2;ratioP2
51090;SDS011;37136;43.614;3.908;2023-03-03T00:01:59;39.97;;;24.95;;
51090;SDS011;37136;43.614;3.908;2023-03-03T00:04:25;37.05;;;24.95;;
51090;SDS011;37136;43.614;3.908;2023-03-03T00:06:52;39.70;;;24.42;;
51090;SDS011;37136;43.614;3.908;2023-03-03T00:09:18;37.13;;;23.98;;
51090;SDS011;37136;43.614;3.908;2023-03-03T00:11:44;36.38;;;24.08;;
51090;SDS011;37136;43.614;3.908;2023-03-03T00:14:30;37.90;;;23.40;;
51090;SDS011;37136;43.614;3.908;2023-03-03T00:16:57;37.90;;;24.23;;
51090;SDS011;37136;43.614;3.908;2023-03-03T00:19:25;37.75;;;25.55;;
51090;SDS011;37136;43.614;3.908;2023-03-03T00:21:52;38.38;;;23.95;;
51090;SDS011;37136;43.614;3.908;2023-03-03T00:24:22;33.88;;;24.20;;
51090;SDS011;37136;43.614;3.908;2023-03-03T00:26:50;37.05;;;24.25;;
51090;SDS011;37136;43.614;3.908;2023-03-03T00:31:45;34.78;;;24.10;;
51090;SDS011;37136;43.614;3.908;2023-03-03T00:36:44;35.83;;;23.40;;
51090;SDS011;37136;43.614;3.908;2023-03-03T00:46:51;35.28;;;23.98;;
51090;SDS011;37136;43.614;3.908;2023-03-03T00:51:46;35.30;;;23.05;;
51090;SDS011;37136;43.614;3.908;2023-03-03T00:54:12;37.55;;;23.67;;
51090;SDS011;37136;43.614;3.908;2023-03-03T00:56:38;35.97;;;23.50;;
51090;SDS011;37136;43.614;3.908;2023-03-03T00:59:04;35.10;;;24.15;;
51090;SDS011;37136;43.614;3.908;2023-03-03T01:01:31;35.45;;;23.08;;
51090;SDS011;37136;43.614;3.908;2023-03-03T01:03:57;36.72;;;24.25;;
51090;SDS011;37136;43.614;3.908;2023-03-03T01:06:23;36.58;;;24.13;;
51090;SDS011;37136;43.614;3.908;2023-03-03T01:08:49;36.85;;;23.48;;
51090;SDS011;37136;43.614;3.908;2023-03-03T01:11:17;33.58;;;22.45;;
51090;SDS011;37136;43.614;3.908;2023-03-03T01:13:44;37.47;;;23.45;;
51090;SDS011;37136;43.614;3.908;2023-03-03T01:16:12;31.33;;;21.90;;
51090;SDS011;37136;43.614;3.908;2023-03-03T01:18:38;35.80;;;22.38;;
51090;SDS011;37136;43.614;3.908;2023-03-03T01:21:06;35.35;;;23.58;;
51090;SDS011;37136;43.614;3.908;2023-03-03T01:23:32;35.83;;;23.67;;
51090;SDS011;37136;43.614;3.908;2023-03-03T01:25:59;36.03;;;23.17;;
51090;SDS011;37136;43.614;3.908;2023-03-03T01:28:25;36.15;;;24.30;;
51090;SDS011;37136;43.614;3.908;2023-03-03T01:30:51;37.22;;;25.10;;
51090;SDS011;37136;43.614;3.908;2023-03-03T01:33:17;36.97;;;25.27;;
51090;SDS011;37136;43.614;3.908;2023-03-03T01:35:47;39.97;;;26.00;;
51090;SDS011;37136;43.614;3.908;2023-03-03T01:38:13;37.17;;;24.38;;
51090;SDS011;37136;43.614;3.908;2023-03-03T01:40:39;39.47;;;24.90;;
51090;SDS011;37136;43.614;3.908;2023-03-03T01:43:06;35.38;;;24.10;;
51090;SDS011;37136;43.614;3.908;2023-03-03T01:48:24;37.30;;;24.08;;
51090;SDS011;37136;43.614;3.908;2023-03-03T01:53:55;39.58;;;25.10;;
51090;SDS011;37136;43.614;3.908;2023-03-03T01:56:22;39.83;;;26.33;;
51090;SDS011;37136;43.614;3.908;2023-03-03T01:58:53;39.97;;;26.05;;
51090;SDS011;37136;43.614;3.908;2023-03-03T02:01:24;36.58;;;24.45;;
51090;SDS011;37136;43.614;3.908;2023-03-03T02:03:51;40.55;;;25.73;;
51090;SDS011;37136;43.614;3.908;2023-03-03T02:06:19;36.30;;;24.38;;
51090;SDS011;37136;43.614;3.908;2023-03-03T02:08:59;43.53;;;25.77;;
51090;SDS011;37136;43.614;3.908;2023-03-03T02:11:27;40.40;;;25.50;;
51090;SDS011;37136;43.614;3.908;2023-03-03T02:13:54;38.05;;;25.25;;
51090;SDS011;37136;43.614;3.908;2023-03-03T02:16:20;41.67;;;25.60;;
51090;SDS011;37136;43.614;3.908;2023-03-03T02:18:46;38.33;;;24.20;;
51090;SDS011;37136;43.614;3.908;2023-03-03T02:21:19;37.22;;;24.77;;
51090;SDS011;37136;43.614;3.908;2023-03-03T02:26:25;35.92;;;24.00;;
51090;SDS011;37136;43.614;3.908;2023-03-03T02:28:52;38.45;;;25.33;;
51090;SDS011;37136;43.614;3.908;2023-03-03T02:31:19;39.35;;;24.52;;
51090;SDS011;37136;43.614;3.908;2023-03-03T02:33:47;39.75;;;24.33;;
51090;SDS011;37136;43.614;3.908;2023-03-03T02:36:15;34.80;;;23.47;;
51090;SDS011;37136;43.614;3.908;2023-03-03T02:38:43;39.03;;;23.58;;
51090;SDS011;37136;43.614;3.908;2023-03-03T02:46:21;33.25;;;22.58;;
51090;SDS011;37136;43.614;3.908;2023-03-03T02:48:47;37.53;;;22.83;;
51090;SDS011;37136;43.614;3.908;2023-03-03T02:51:13;35.75;;;23.38;;
51090;SDS011;37136;43.614;3.908;2023-03-03T02:53:39;33.63;;;22.02;;
51090;SDS011;37136;43.614;3.908;2023-03-03T02:56:05;33.83;;;21.90;;
51090;SDS011;37136;43.614;3.908;2023-03-03T02:58:33;34.90;;;23.55;;
51090;SDS011;37136;43.614;3.908;2023-03-03T03:00:59;32.90;;;21.88;;
51090;SDS011;37136;43.614;3.908;2023-03-03T03:03:25;38.08;;;23.67;;
51090;SDS011;37136;43.614;3.908;2023-03-03T03:05:52;35.88;;;22.92;;
51090;SDS011;37136;43.614;3.908;2023-03-03T03:08:18;34.08;;;22.63;;
51090;SDS011;37136;43.614;3.908;2023-03-03T03:10:44;38.85;;;23.60;;
51090;SDS011;37136;43.614;3.908;2023-03-03T03:13:10;38.15;;;23.33;;
51090;SDS011;37136;43.614;3.908;2023-03-03T03:15:36;35.67;;;22.65;;
51090;SDS011;37136;43.614;3.908;2023-03-03T03:18:03;32.85;;;22.33;;
51090;SDS011;37136;43.614;3.908;2023-03-03T03:20:29;34.97;;;22.80;;
51090;SDS011;37136;43.614;3.908;2023-03-03T03:22:55;36.08;;;22.67;;
51090;SDS011;37136;43.614;3.908;2023-03-03T03:25:21;34.53;;;22.38;;
51090;SDS011;37136;43.614;3.908;2023-03-03T03:27:47;33.50;;;22.27;;
51090;SDS011;37136;43.614;3.908;2023-03-03T03:30:13;36.33;;;23.73;;
51090;SDS011;37136;43.614;3.908;2023-03-03T03:32:40;36.08;;;23.23;;
51090;SDS011;37136;43.614;3.908;2023-03-03T03:35:06;35.08;;;22.70;;
51090;SDS011;37136;43.614;3.908;2023-03-03T03:37:33;36.92;;;22.73;;
51090;SDS011;37136;43.614;3.908;2023-03-03T03:39:59;38.85;;;23.73;;
51090;SDS011;37136;43.614;3.908;2023-03-03T03:42:25;37.33;;;23.73;;
51090;SDS011;37136;43.614;3.908;2023-03-03T03:44:51;34.25;;;22.08;;
51090;SDS011;37136;43.614;3.908;2023-03-03T03:47:17;39.90;;;24.20;;
51090;SDS011;37136;43.614;3.908;2023-03-03T03:49:43;36.40;;;23.50;;
51090;SDS011;37136;43.614;3.908;2023-03-03T03:52:09;38.92;;;23.10;;
51090;SDS011;37136;43.614;3.908;2023-03-03T03:54:35;35.55;;;23.15;;
51090;SDS011;37136;43.614;3.908;2023-03-03T03:57:01;38.20;;;22.95;;
51090;SDS011;37136;43.614;3.908;2023-03-03T03:59:28;37.28;;;24.77;;
51090;SDS011;37136;43.614;3.908;2023-03-03T04:01:54;39.33;;;24.88;;
51090;SDS011;37136;43.614;3.908;2023-03-03T04:04:20;35.95;;;23.10;;
51090;SDS011;37136;43.614;3.908;2023-03-03T04:06:46;37.83;;;23.45;;
51090;SDS011;37136;43.614;3.908;2023-03-03T04:09:13;36.70;;;23.50;;
51090;SDS011;37136;43.614;3.908;2023-03-03T04:11:39;36.47;;;24.65;;
51090;SDS011;37136;43.614;3.908;2023-03-03T04:14:05;37.33;;;23.48;;
51090;SDS011;37136;43.614;3.908;2023-03-03T04:16:31;37.33;;;23.90;;
51090;SDS011;37136;43.614;3.908;2023-03-03T04:18:58;37.08;;;23.55;;
51090;SDS011;37136;43.614;3.908;2023-03-03T04:21:24;40.25;;;24.83;;
51090;SDS011;37136;43.614;3.908;2023-03-03T04:23:51;42.70;;;24.88;;
51090;SDS011;37136;43.614;3.908;2023-03-03T04:26:18;45.53;;;24.90;;
51090;SDS011;37136;43.614;3.908;2023-03-03T04:28:44;43.53;;;24.17;;
51090;SDS011;37136;43.614;3.908;2023-03-03T04:31:10;43.40;;;25.55;;
51090;SDS011;37136;43.614;3.908;2023-03-03T04:33:36;34.90;;;23.65;;
51090;SDS011;37136;43.614;3.908;2023-03-03T04:36:03;36.08;;;24.27;;
51090;SDS011;37136;43.614;3.908;2023-03-03T04:38:29;40.08;;;25.25;;
51090;SDS011;37136;43.614;3.908;2023-03-03T04:40:55;36.80;;;24.53;;
51090;SDS011;37136;43.614;3.908;2023-03-03T04:43:22;37.67;;;23.70;;
51090;SDS011;37136;43.614;3.908;2023-03-03T04:45:48;40.70;;;24.92;;
51090;SDS011;37136;43.614;3.908;2023-03-03T04:48:14;41.28;;;25.30;;
51090;SDS011;37136;43.614;3.908;2023-03-03T04:50:40;38.05;;;24.73;;
51090;SDS011;37136;43.614;3.908;2023-03-03T04:53:07;40.78;;;24.63;;
51090;SDS011;37136;43.614;3.908;2023-03-03T04:55:35;41.33;;;25.05;;
51090;SDS011;37136;43.614;3.908;2023-03-03T04:58:01;39.63;;;23.55;;
51090;SDS011;37136;43.614;3.908;2023-03-03T05:00:28;41.35;;;24.52;;
51090;SDS011;37136;43.614;3.908;2023-03-03T05:02:54;42.33;;;25.30;;
51090;SDS011;37136;43.614;3.908;2023-03-03T05:05:20;42.60;;;25.95;;
51090;SDS011;37136;43.614;3.908;2023-03-03T05:07:46;39.63;;;23.52;;
51090;SDS011;37136;43.614;3.908;2023-03-03T05:10:12;38.35;;;24.45;;
51090;SDS011;37136;43.614;3.908;2023-03-03T05:12:38;40.28;;;24.23;;
51090;SDS011;37136;43.614;3.908;2023-03-03T05:15:05;39.63;;;23.77;;
51090;SDS011;37136;43.614;3.908;2023-03-03T05:17:31;34.80;;;22.10;;
51090;SDS011;37136;43.614;3.908;2023-03-03T05:19:57;40.17;;;23.20;;
51090;SDS011;37136;43.614;3.908;2023-03-03T05:22:23;37.42;;;23.85;;
51090;SDS011;37136;43.614;3.908;2023-03-03T05:24:50;36.28;;;23.38;;
51090;SDS011;37136;43.614;3.908;2023-03-03T05:27:18;38.90;;;24.77;;
51090;SDS011;37136;43.614;3.908;2023-03-03T05:29:44;36.80;;;23.25;;
51090;SDS011;37136;43.614;3.908;2023-03-03T05:32:10;41.53;;;25.00;;
51090;SDS011;37136;43.614;3.908;2023-03-03T05:34:36;40.25;;;24.58;;
51090;SDS011;37136;43.614;3.908;2023-03-03T05:37:02;40.30;;;25.20;;
51090;SDS011;37136;43.614;3.908;2023-03-03T05:39:31;45.90;;;24.88;;
51090;SDS011;37136;43.614;3.908;2023-03-03T05:41:57;41.25;;;25.52;;
51090;SDS011;37136;43.614;3.908;2023-03-03T05:44:24;37.35;;;23.80;;
51090;SDS011;37136;43.614;3.908;2023-03-03T05:46:50;44.22;;;24.60;;
51090;SDS011;37136;43.614;3.908;2023-03-03T05:49:16;43.58;;;25.65;;
51090;SDS011;37136;43.614;3.908;2023-03-03T05:51:43;44.25;;;25.42;;
51090;SDS011;37136;43.614;3.908;2023-03-03T05:54:09;41.67;;;24.83;;
51090;SDS011;37136;43.614;3.908;2023-03-03T05:56:35;42.35;;;25.05;;
51090;SDS011;37136;43.614;3.908;2023-03-03T05:59:01;41.22;;;25.20;;
51090;SDS011;37136;43.614;3.908;2023-03-03T06:01:27;40.58;;;24.85;;
51090;SDS011;37136;43.614;3.908;2023-03-03T06:03:53;46.20;;;26.77;;
51090;SDS011;37136;43.614;3.908;2023-03-03T06:06:19;43.10;;;25.40;;
51090;SDS011;37136;43.614;3.908;2023-03-03T06:08:45;40.28;;;24.55;;
51090;SDS011;37136;43.614;3.908;2023-03-03T06:11:12;43.58;;;25.23;;
51090;SDS011;37136;43.614;3.908;2023-03-03T06:13:40;44.95;;;25.17;;
51090;SDS011;37136;43.614;3.908;2023-03-03T06:16:06;39.00;;;23.20;;
51090;SDS011;37136;43.614;3.908;2023-03-03T06:18:33;39.55;;;24.40;;
51090;SDS011;37136;43.614;3.908;2023-03-03T06:20:59;44.33;;;26.42;;
51090;SDS011;37136;43.614;3.908;2023-03-03T06:23:25;42.90;;;25.48;;
51090;SDS011;37136;43.614;3.908;2023-03-03T06:25:51;42.22;;;25.40;;
51090;SDS011;37136;43.614;3.908;2023-03-03T06:28:17;37.65;;;23.65;;
51090;SDS011;37136;43.614;3.908;2023-03-03T06:30:44;43.00;;;25.48;;
51090;SDS011;37136;43.614;3.908;2023-03-03T06:33:10;42.83;;;25.63;;
51090;SDS011;37136;43.614;3.908;2023-03-03T06:35:36;42.15;;;25.77;;
51090;SDS011;37136;43.614;3.908;2023-03-03T06:38:02;38.90;;;25.42;;
51090;SDS011;37136;43.614;3.908;2023-03-03T06:40:28;44.25;;;26.27;;
51090;SDS011;37136;43.614;3.908;2023-03-03T06:42:54;40.45;;;24.75;;
51090;SDS011;37136;43.614;3.908;2023-03-03T06:45:21;43.05;;;25.40;;
51090;SDS011;37136;43.614;3.908;2023-03-03T06:47:47;43.70;;;26.23;;
51090;SDS011;37136;43.614;3.908;2023-03-03T06:50:13;53.05;;;29.33;;
51090;SDS011;37136;43.614;3.908;2023-03-03T06:52:42;53.47;;;32.88;;
51090;SDS011;37136;43.614;3.908;2023-03-03T06:55:11;77.80;;;48.75;;
51090;SDS011;37136;43.614;3.908;2023-03-03T06:57:38;69.47;;;43.47;;
51090;SDS011;37136;43.614;3.908;2023-03-03T07:00:11;87.53;;;55.70;;
51090;SDS011;37136;43.614;3.908;2023-03-03T07:02:39;224.48;;;139.18;;
51090;SDS011;37136;43.614;3.908;2023-03-03T07:05:06;192.75;;;118.50;;
51090;SDS011;37136;43.614;3.908;2023-03-03T07:07:35;135.23;;;82.50;;
51090;SDS011;37136;43.614;3.908;2023-03-03T07:10:05;114.32;;;64.45;;
51090;SDS011;37136;43.614;3.908;2023-03-03T07:12:32;78.57;;;44.42;;
51090;SDS011;37136;43.614;3.908;2023-03-03T07:17:46;65.78;;;37.50;;
51090;SDS011;37136;43.614;3.908;2023-03-03T07:20:23;67.38;;;40.08;;
51090;SDS011;37136;43.614;3.908;2023-03-03T07:22:49;64.18;;;37.50;;
51090;SDS011;37136;43.614;3.908;2023-03-03T07:25:19;67.68;;;39.22;;
51090;SDS011;37136;43.614;3.908;2023-03-03T07:27:46;64.32;;;38.15;;
51090;SDS011;37136;43.614;3.908;2023-03-03T07:32:39;68.97;;;37.58;;
51090;SDS011;37136;43.614;3.908;2023-03-03T07:37:45;57.80;;;34.97;;
51090;SDS011;37136;43.614;3.908;2023-03-03T07:42:55;60.20;;;32.08;;
51090;SDS011;37136;43.614;3.908;2023-03-03T07:45:24;47.53;;;27.98;;
51090;SDS011;37136;43.614;3.908;2023-03-03T07:47:51;49.60;;;28.52;;
51090;SDS011;37136;43.614;3.908;2023-03-03T07:50:19;44.08;;;27.00;;
51090;SDS011;37136;43.614;3.908;2023-03-03T07:52:49;42.80;;;27.02;;
51090;SDS011;37136;43.614;3.908;2023-03-03T07:57:46;50.72;;;28.42;;
51090;SDS011;37136;43.614;3.908;2023-03-03T08:05:27;42.45;;;27.35;;
51090;SDS011;37136;43.614;3.908;2023-03-03T08:11:13;49.47;;;28.15;;
51090;SDS011;37136;43.614;3.908;2023-03-03T08:18:28;43.55;;;26.25;;
51090;SDS011;37136;43.614;3.908;2023-03-03T08:20:56;44.88;;;26.77;;
51090;SDS011;37136;43.614;3.908;2023-03-03T08:23:23;45.08;;;27.17;;
51090;SDS011;37136;43.614;3.908;2023-03-03T08:25:49;39.95;;;25.50;;
51090;SDS011;37136;43.614;3.908;2023-03-03T08:28:16;50.28;;;26.58;;
51090;SDS011;37136;43.614;3.908;2023-03-03T08:30:42;41.95;;;25.67;;
51090;SDS011;37136;43.614;3.908;2023-03-03T08:33:09;43.63;;;25.25;;
51090;SDS011;37136;43.614;3.908;2023-03-03T08:35:35;46.60;;;27.08;;
51090;SDS011;37136;43.614;3.908;2023-03-03T08:38:02;43.72;;;25.38;;
51090;SDS011;37136;43.614;3.908;2023-03-03T08:40:28;43.38;;;26.13;;
51090;SDS011;37136;43.614;3.908;2023-03-03T08:42:54;54.67;;;26.73;;
51090;SDS011;37136;43.614;3.908;2023-03-03T08:45:22;43.95;;;26.58;;
51090;SDS011;37136;43.614;3.908;2023-03-03T08:47:48;36.67;;;23.88;;
51090;SDS011;37136;43.614;3.908;2023-03-03T08:50:14;41.83;;;25.85;;
51090;SDS011;37136;43.614;3.908;2023-03-03T08:52:40;35.05;;;23.27;;
51090;SDS011;37136;43.614;3.908;2023-03-03T08:55:07;33.55;;;21.55;;
51090;SDS011;37136;43.614;3.908;2023-03-03T08:57:33;31.98;;;21.25;;
51090;SDS011;37136;43.614;3.908;2023-03-03T08:59:59;32.50;;;21.23;;
51090;SDS011;37136;43.614;3.908;2023-03-03T09:02:25;30.25;;;20.25;;
51090;SDS011;37136;43.614;3.908;2023-03-03T09:04:51;36.70;;;21.85;;
51090;SDS011;37136;43.614;3.908;2023-03-03T09:07:17;31.17;;;20.27;;
51090;SDS011;37136;43.614;3.908;2023-03-03T09:09:43;31.83;;;20.67;;
51090;SDS011;37136;43.614;3.908;2023-03-03T09:12:14;34.13;;;21.02;;
51090;SDS011;37136;43.614;3.908;2023-03-03T09:14:43;32.97;;;21.35;;
51090;SDS011;37136;43.614;3.908;2023-03-03T09:19:57;36.45;;;20.77;;
51090;SDS011;37136;43.614;3.908;2023-03-03T09:22:24;32.08;;;21.55;;
51090;SDS011;37136;43.614;3.908;2023-03-03T09:24:56;33.92;;;20.80;;
51090;SDS011;37136;43.614;3.908;2023-03-03T09:27:29;31.80;;;20.30;;
51090;SDS011;37136;43.614;3.908;2023-03-03T09:29:57;35.70;;;21.67;;
51090;SDS011;37136;43.614;3.908;2023-03-03T09:32:29;30.17;;;19.90;;
51090;SDS011;37136;43.614;3.908;2023-03-03T09:34:56;30.00;;;20.20;;
51090;SDS011;37136;43.614;3.908;2023-03-03T09:37:23;29.55;;;19.63;;
51090;SDS011;37136;43.614;3.908;2023-03-03T09:39:52;29.95;;;20.30;;
51090;SDS011;37136;43.614;3.908;2023-03-03T09:50:29;27.85;;;17.48;;
51090;SDS011;37136;43.614;3.908;2023-03-03T10:00:26;25.23;;;16.98;;
51090;SDS011;37136;43.614;3.908;2023-03-03T10:07:54;27.67;;;17.15;;
51090;SDS011;37136;43.614;3.908;2023-03-03T10:10:38;24.02;;;15.77;;
51090;SDS011;37136;43.614;3.908;2023-03-03T10:18:54;22.90;;;15.25;;
51090;SDS011;37136;43.614;3.908;2023-03-03T10:52:51;15.13;;;11.02;;
51090;SDS011;37136;43.614;3.908;2023-03-03T10:55:37;15.93;;;11.85;;
51090;SDS011;37136;43.614;3.908;2023-03-03T11:04:02;15.05;;;11.30;;
51090;SDS011;37136;43.614;3.908;2023-03-03T11:09:15;14.68;;;11.25;;
51090;SDS011;37136;43.614;3.908;2023-03-03T11:16:44;15.45;;;9.93;;
51090;SDS011;37136;43.614;3.908;2023-03-03T11:19:22;15.02;;;10.00;;
51090;SDS011;37136;43.614;3.908;2023-03-03T11:37:28;14.07;;;9.95;;
51090;SDS011;37136;43.614;3.908;2023-03-03T11:39:59;13.50;;;9.45;;
51090;SDS011;37136;43.614;3.908;2023-03-03T11:42:29;13.35;;;9.32;;
51090;SDS011;37136;43.614;3.908;2023-03-03T11:45:02;14.18;;;10.70;;
51090;SDS011;37136;43.614;3.908;2023-03-03T11:47:36;17.40;;;9.40;;
51090;SDS011;37136;43.614;3.908;2023-03-03T11:55:37;16.33;;;9.63;;
51090;SDS011;37136;43.614;3.908;2023-03-03T12:08:31;15.40;;;9.40;;
51090;SDS011;37136;43.614;3.908;2023-03-03T12:11:12;14.50;;;9.57;;
51090;SDS011;37136;43.614;3.908;2023-03-03T12:26:46;11.95;;;8.50;;
51090;SDS011;37136;43.614;3.908;2023-03-03T12:29:30;12.85;;;9.38;;
51090;SDS011;37136;43.614;3.908;2023-03-03T12:40:01;14.52;;;10.30;;
51090;SDS011;37136;43.614;3.908;2023-03-03T12:45:31;12.70;;;9.23;;
51090;SDS011;37136;43.614;3.908;2023-03-03T12:48:04;10.80;;;8.45;;
51090;SDS011;37136;43.614;3.908;2023-03-03T12:50:41;14.27;;;7.95;;
51090;SDS011;37136;43.614;3.908;2023-03-03T12:53:16;11.82;;;7.75;;
51090;SDS011;37136;43.614;3.908;2023-03-03T12:55:56;13.02;;;9.73;;
51090;SDS011;37136;43.614;3.908;2023-03-03T13:08:37;15.60;;;9.32;;
51090;SDS011;37136;43.614;3.908;2023-03-03T13:11:17;19.60;;;12.73;;
51090;SDS011;37136;43.614;3.908;2023-03-03T13:24:34;23.73;;;14.73;;
51090;SDS011;37136;43.614;3.908;2023-03-03T13:27:06;19.92;;;14.52;;
51090;SDS011;37136;43.614;3.908;2023-03-03T13:29:34;19.42;;;14.15;;
51090;SDS011;37136;43.614;3.908;2023-03-03T13:39:28;20.52;;;14.73;;
51090;SDS011;37136;43.614;3.908;2023-03-03T13:41:56;20.40;;;16.10;;
51090;SDS011;37136;43.614;3.908;2023-03-03T13:44:33;19.35;;;14.07;;
51090;SDS011;37136;43.614;3.908;2023-03-03T13:52:31;22.00;;;12.60;;
51090;SDS011;37136;43.614;3.908;2023-03-03T13:59:58;19.48;;;14.50;;
51090;SDS011;37136;43.614;3.908;2023-03-03T14:05:03;20.25;;;12.93;;
51090;SDS011;37136;43.614;3.908;2023-03-03T14:07:37;21.38;;;13.27;;
51090;SDS011;37136;43.614;3.908;2023-03-03T14:10:40;21.05;;;12.50;;
51090;SDS011;37136;43.614;3.908;2023-03-03T14:13:03;20.88;;;12.20;;
51090;SDS011;37136;43.614;3.908;2023-03-03T14:15:34;21.27;;;11.23;;
51090;SDS011;37136;43.614;3.908;2023-03-03T14:20:46;17.38;;;12.48;;
51090;SDS011;37136;43.614;3.908;2023-03-03T14:23:15;18.35;;;12.15;;
51090;SDS011;37136;43.614;3.908;2023-03-03T14:25:51;17.35;;;11.32;;
51090;SDS011;37136;43.614;3.908;2023-03-03T14:28:18;18.38;;;11.25;;
51090;SDS011;37136;43.614;3.908;2023-03-03T14:30:45;14.50;;;10.05;;
51090;SDS011;37136;43.614;3.908;2023-03-03T14:35:38;22.33;;;13.48;;
51090;SDS011;37136;43.614;3.908;2023-03-03T14:40:34;17.98;;;10.95;;
51090;SDS011;37136;43.614;3.908;2023-03-03T14:43:04;17.00;;;12.43;;
51090;SDS011;37136;43.614;3.908;2023-03-03T14:45:38;18.17;;;11.45;;
51090;SDS011;37136;43.614;3.908;2023-03-03T14:50:47;18.50;;;12.23;;
51090;SDS011;37136;43.614;3.908;2023-03-03T14:55:41;17.42;;;11.20;;
51090;SDS011;37136;43.614;3.908;2023-03-03T14:58:30;20.70;;;13.77;;
51090;SDS011;37136;43.614;3.908;2023-03-03T15:11:55;17.67;;;12.15;;
51090;SDS011;37136;43.614;3.908;2023-03-03T15:14:25;17.55;;;13.30;;
51090;SDS011;37136;43.614;3.908;2023-03-03T15:16:55;16.13;;;10.35;;
51090;SDS011;37136;43.614;3.908;2023-03-03T15:27:44;17.13;;;12.57;;
51090;SDS011;37136;43.614;3.908;2023-03-03T15:37:56;18.25;;;12.05;;
51090;SDS011;37136;43.614;3.908;2023-03-03T15:40:26;19.33;;;11.13;;
51090;SDS011;37136;43.614;3.908;2023-03-03T15:45:31;17.48;;;10.77;;
51090;SDS011;37136;43.614;3.908;2023-03-03T15:48:00;17.10;;;11.05;;
51090;SDS011;37136;43.614;3.908;2023-03-03T15:57:58;19.05;;;12.40;;
51090;SDS011;37136;43.614;3.908;2023-03-03T16:02:57;15.88;;;10.70;;
51090;SDS011;37136;43.614;3.908;2023-03-03T16:05:30;20.25;;;11.55;;
51090;SDS011;37136;43.614;3.908;2023-03-03T16:31:16;14.77;;;11.35;;
51090;SDS011;37136;43.614;3.908;2023-03-03T16:36:31;18.17;;;11.32;;
51090;SDS011;37136;43.614;3.908;2023-03-03T16:39:10;19.45;;;11.57;;
51090;SDS011;37136;43.614;3.908;2023-03-03T16:41:43;16.10;;;11.13;;
51090;SDS011;37136;43.614;3.908;2023-03-03T16:46:44;23.40;;;11.65;;
51090;SDS011;37136;43.614;3.908;2023-03-03T16:56:52;17.42;;;10.18;;
51090;SDS011;37136;43.614;3.908;2023-03-03T17:07:07;17.42;;;11.48;;
51090;SDS011;37136;43.614;3.908;2023-03-03T17:15:00;20.40;;;13.20;;
51090;SDS011;37136;43.614;3.908;2023-03-03T17:22:56;20.42;;;11.45;;
51090;SDS011;37136;43.614;3.908;2023-03-03T17:31:16;18.00;;;11.45;;
51090;SDS011;37136;43.614;3.908;2023-03-03T17:36:21;18.63;;;12.38;;
51090;SDS011;37136;43.614;3.908;2023-03-03T17:38:55;17.52;;;11.63;;
51090;SDS011;37136;43.614;3.908;2023-03-03T17:44:01;16.47;;;11.80;;
51090;SDS011;37136;43.614;3.908;2023-03-03T17:51:36;20.65;;;13.52;;
51090;SDS011;37136;43.614;3.908;2023-03-03T17:59:58;23.02;;;12.77;;
51090;SDS011;37136;43.614;3.908;2023-03-03T18:07:52;28.48;;;15.27;;
51090;SDS011;37136;43.614;3.908;2023-03-03T18:13:08;25.88;;;17.25;;
51090;SDS011;37136;43.614;3.908;2023-03-03T18:18:08;28.25;;;18.05;;
51090;SDS011;37136;43.614;3.908;2023-03-03T18:28:51;31.48;;;19.52;;
51090;SDS011;37136;43.614;3.908;2023-03-03T18:31:29;25.60;;;18.80;;
51090;SDS011;37136;43.614;3.908;2023-03-03T18:34:02;34.42;;;21.85;;
51090;SDS011;37136;43.614;3.908;2023-03-03T18:38:59;37.53;;;22.85;;
51090;SDS011;37136;43.614;3.908;2023-03-03T18:41:27;39.13;;;26.08;;
51090;SDS011;37136;43.614;3.908;2023-03-03T18:43:55;40.33;;;23.67;;
51090;SDS011;37136;43.614;3.908;2023-03-03T18:48:56;40.78;;;22.98;;
51090;SDS011;37136;43.614;3.908;2023-03-03T18:56:41;46.33;;;28.33;;
51090;SDS011;37136;43.614;3.908;2023-03-03T18:59:08;52.10;;;29.02;;
51090;SDS011;37136;43.614;3.908;2023-03-03T19:01:38;45.25;;;27.27;;
51090;SDS011;37136;43.614;3.908;2023-03-03T19:09:10;49.85;;;28.15;;
51090;SDS011;37136;43.614;3.908;2023-03-03T19:11:40;49.15;;;28.27;;
51090;SDS011;37136;43.614;3.908;2023-03-03T19:16:52;50.30;;;29.10;;
51090;SDS011;37136;43.614;3.908;2023-03-03T19:19:19;42.28;;;27.30;;
51090;SDS011;37136;43.614;3.908;2023-03-03T19:21:47;48.65;;;29.48;;
51090;SDS011;37136;43.614;3.908;2023-03-03T19:32:26;44.53;;;29.40;;
51090;SDS011;37136;43.614;3.908;2023-03-03T19:39:57;50.67;;;31.60;;
51090;SDS011;37136;43.614;3.908;2023-03-03T19:55:45;53.70;;;34.17;;
51090;SDS011;37136;43.614;3.908;2023-03-03T20:03:48;49.45;;;28.98;;
51090;SDS011;37136;43.614;3.908;2023-03-03T20:08:53;50.78;;;31.45;;
51090;SDS011;37136;43.614;3.908;2023-03-03T20:16:58;67.15;;;38.50;;
51090;SDS011;37136;43.614;3.908;2023-03-03T20:22:18;72.07;;;41.03;;
51090;SDS011;37136;43.614;3.908;2023-03-03T20:32:59;67.63;;;36.97;;
51090;SDS011;37136;43.614;3.908;2023-03-03T20:38:22;61.72;;;36.15;;
51090;SDS011;37136;43.614;3.908;2023-03-03T20:51:24;48.42;;;31.73;;
51090;SDS011;37136;43.614;3.908;2023-03-03T20:53:58;45.85;;;26.50;;
51090;SDS011;37136;43.614;3.908;2023-03-03T20:56:29;40.03;;;24.27;;
51090;SDS011;37136;43.614;3.908;2023-03-03T21:06:51;34.63;;;23.08;;
51090;SDS011;37136;43.614;3.908;2023-03-03T21:09:22;36.33;;;24.05;;
51090;SDS011;37136;43.614;3.908;2023-03-03T21:11:49;36.30;;;23.13;;
51090;SDS011;37136;43.614;3.908;2023-03-03T21:14:16;31.83;;;21.55;;
51090;SDS011;37136;43.614;3.908;2023-03-03T21:16:44;30.02;;;21.23;;
51090;SDS011;37136;43.614;3.908;2023-03-03T21:19:11;31.10;;;21.35;;
51090;SDS011;37136;43.614;3.908;2023-03-03T21:21:39;32.05;;;21.00;;
51090;SDS011;37136;43.614;3.908;2023-03-03T21:24:06;38.97;;;23.20;;
51090;SDS011;37136;43.614;3.908;2023-03-03T21:29:22;32.92;;;21.88;;
51090;SDS011;37136;43.614;3.908;2023-03-03T21:31:52;34.33;;;22.05;;
51090;SDS011;37136;43.614;3.908;2023-03-03T21:34:23;34.05;;;22.52;;
51090;SDS011;37136;43.614;3.908;2023-03-03T21:36:49;33.45;;;23.60;;
51090;SDS011;37136;43.614;3.908;2023-03-03T21:41:58;33.30;;;23.20;;
51090;SDS011;37136;43.614;3.908;2023-03-03T21:47:28;40.38;;;25.08;;
51090;SDS011;37136;43.614;3.908;2023-03-03T21:49:54;42.42;;;25.40;;
51090;SDS011;37136;43.614;3.908;2023-03-03T21:52:21;39.30;;;26.60;;
51090;SDS011;37136;43.614;3.908;2023-03-03T21:54:48;45.75;;;26.50;;
51090;SDS011;37136;43.614;3.908;2023-03-03T21:57:14;42.13;;;25.23;;
51090;SDS011;37136;43.614;3.908;2023-03-03T21:59:40;43.30;;;27.10;;
51090;SDS011;37136;43.614;3.908;2023-03-03T22:02:07;40.50;;;25.95;;
51090;SDS011;37136;43.614;3.908;2023-03-03T22:04:33;48.00;;;29.50;;
51090;SDS011;37136;43.614;3.908;2023-03-03T22:06:59;59.00;;;33.13;;
51090;SDS011;37136;43.614;3.908;2023-03-03T22:09:25;60.95;;;35.55;;
51090;SDS011;37136;43.614;3.908;2023-03-03T22:11:51;47.67;;;28.95;;
51090;SDS011;37136;43.614;3.908;2023-03-03T22:14:17;45.45;;;30.10;;
51090;SDS011;37136;43.614;3.908;2023-03-03T22:16:44;63.80;;;32.03;;
51090;SDS011;37136;43.614;3.908;2023-03-03T22:19:10;45.28;;;26.50;;
51090;SDS011;37136;43.614;3.908;2023-03-03T22:21:37;50.17;;;27.85;;